Cleo Springs, Oklahoma
Current Conditions -  °F | °C
As of 5:30 AM on Wednesday 26 Nov 2014 (Local Time) from KAVK Reporting Station
Broken Clouds Broken Clouds  
Wind Chill: 31°   Ceiling: 12000
Heat Index: 37°   Visibility: 10mi
Dew Point: 32°   Wind: 9mph
Humidity: 81%   Direction: 310°NW
Pressure: 30.06"   Gusts: NA
Location:  36.41°N, 98.44°W
Report Text: KAVK 261130Z AUTO 31008KT 10SM FEW095 BKN120 03/00 A3006 RMK AO2
Loading
Personal Weather Stations






























Interactive Weather Map New forecast layout! Learn more

10-Day Weather Forecast

Advertisements
Track Severe Weather on mobile